Time;durP1;ratioP1;P1;durP2;ratioP2;P2;SDS_P1;SDS_P2;PMS_P1;PMS_P2;Temp;Humidity;BMP_temperature;BMP_pressure;BME280_temperature;BME280_humidity;BME280_pressure;Samples;Min_cycle;Max_cycle;Signal;HPM_P1;HPM_P2
2023/05/09 00:01:14;;;;;;;;;;;;;;;13.96;100.00;101785.56;5164691;28;20005;-77
2023/05/09 00:03:45;;;;;;;;;;;;;;;13.96;100.00;101793.66;5163251;28;19921;-77
2023/05/09 00:06:16;;;;;;;;;;;;;;;13.97;100.00;101788.09;5164061;28;20314;-77
2023/05/09 00:08:46;;;;;;;;;;;;;;;14.01;100.00;101791.31;5162592;28;19914;-77
2023/05/09 00:11:17;;;;;;;;;;;;;;;14.04;100.00;101782.03;5164442;28;19918;-77
2023/05/09 00:13:48;;;;;;;;;;;;;;;14.07;100.00;101779.84;5164531;28;19914;-77
2023/05/09 00:16:19;;;;;;;;;;;;;;;14.05;100.00;101779.16;5164722;28;19913;-77
2023/05/09 00:18:49;;;;;;;;;;;;;;;14.04;100.00;101768.53;5163576;28;20314;-77
2023/05/09 00:21:20;;;;;;;;;;;;;;;14.04;100.00;101771.22;5163954;28;19960;-77
2023/05/09 00:23:50;;;;;;;;;;;;;;;14.04;100.00;101772.06;5164197;28;20009;-77
2023/05/09 00:26:21;;;;;;;;;;;;;;;14.00;100.00;101771.56;5164215;28;19917;-77
2023/05/09 00:28:52;;;;;;;;;;;;;;;14.02;100.00;101773.28;5162803;28;19913;-77
2023/05/09 00:31:22;;;;;;;;;;;;;;;13.98;100.00;101762.78;5162526;28;19925;-77
2023/05/09 00:33:53;;;;;;;;;;;;;;;13.96;100.00;101754.03;5162635;28;19964;-77
2023/05/09 00:36:23;;;;;;;;;;;;;;;13.93;100.00;101751.66;5163050;28;19913;-77
2023/05/09 00:38:53;;;;;;;;;;;;;;;13.91;100.00;101747.47;5162206;28;19922;-77
2023/05/09 00:41:24;;;;;;;;;;;;;;;13.92;100.00;101743.75;5163103;28;19921;-77
2023/05/09 00:43:55;;;;;;;;;;;;;;;13.87;100.00;101740.69;5163920;28;20008;-77
2023/05/09 00:46:25;;;;;;;;;;;;;;;13.85;100.00;101740.00;5163406;28;19913;-77
2023/05/09 00:48:56;;;;;;;;;;;;;;;13.82;100.00;101732.25;5162279;28;19917;-77
2023/05/09 00:51:27;;;;;;;;;;;;;;;13.81;100.00;101736.81;5162191;28;19925;-77
2023/05/09 00:53:57;;;;;;;;;;;;;;;13.80;100.00;101732.41;5161865;28;19968;-77
2023/05/09 00:56:28;;;;;;;;;;;;;;;13.80;100.00;101727.00;5163362;28;20348;-77
2023/05/09 00:58:58;;;;;;;;;;;;;;;13.77;100.00;101713.03;5163489;28;19920;-77
2023/05/09 01:01:29;;;;;;;;;;;;;;;13.74;100.00;101709.66;5163579;28;19921;-77
2023/05/09 01:03:59;;;;;;;;;;;;;;;13.69;100.00;101705.75;5163807;28;19921;-77
2023/05/09 01:06:48;;;;;;;;;;;;;;;13.65;100.00;101701.72;5162639;28;19975;-77
2023/05/09 01:09:19;;;;;;;;;;;;;;;13.61;100.00;101698.53;5162285;28;19920;-77
2023/05/09 01:11:58;;;;;;;;;;;;;;;13.58;100.00;101689.91;5161982;28;20392;-77
2023/05/09 01:14:48;;;;;;;;;;;;;;;13.57;100.00;101688.22;5162450;28;19914;-77
2023/05/09 01:17:25;;;;;;;;;;;;;;;13.54;100.00;101681.31;5163042;28;19968;-77
2023/05/09 01:20:15;;;;;;;;;;;;;;;13.51;100.00;101668.16;5161688;28;20384;-77
2023/05/09 01:22:48;;;;;;;;;;;;;;;13.52;100.00;101664.47;5161533;28;19914;-77
2023/05/09 01:25:35;;;;;;;;;;;;;;;13.51;100.00;101665.47;5163306;28;19920;-77
2023/05/09 01:28:11;;;;;;;;;;;;;;;13.47;100.00;101669.50;5161185;28;19913;-77
2023/05/09 01:30:44;;;;;;;;;;;;;;;13.45;100.00;101664.28;5162794;28;19918;-77
2023/05/09 01:33:16;;;;;;;;;;;;;;;13.49;100.00;101656.69;5161640;28;19918;-77
2023/05/09 01:35:50;;;;;;;;;;;;;;;13.49;100.00;101662.09;5161633;28;19921;-77
2023/05/09 01:38:22;;;;;;;;;;;;;;;13.48;100.00;101661.25;5162105;28;19924;-77
2023/05/09 01:40:54;;;;;;;;;;;;;;;13.51;100.00;101656.56;5162784;28;19913;-77
2023/05/09 01:43:26;;;;;;;;;;;;;;;13.52;100.00;101659.06;5160986;28;19921;-77
2023/05/09 01:45:58;;;;;;;;;;;;;;;13.52;100.00;101656.38;5161895;28;19921;-77
2023/05/09 01:48:29;;;;;;;;;;;;;;;13.54;100.00;101656.19;5162493;28;19918;-77
2023/05/09 01:51:01;;;;;;;;;;;;;;;13.52;100.00;101653.69;5161450;28;20388;-77
2023/05/09 01:53:32;;;;;;;;;;;;;;;13.49;100.00;101648.59;5162001;28;19925;-77
2023/05/09 01:56:04;;;;;;;;;;;;;;;13.49;100.00;101651.31;5162654;28;19961;-77
2023/05/09 01:58:35;;;;;;;;;;;;;;;13.50;100.00;101649.44;5161658;28;19914;-77
2023/05/09 02:01:06;;;;;;;;;;;;;;;13.49;100.00;101640.53;5162729;28;19920;-77
2023/05/09 02:03:37;;;;;;;;;;;;;;;13.50;100.00;101644.91;5161565;28;19914;-77
2023/05/09 02:06:09;;;;;;;;;;;;;;;13.51;100.00;101633.13;5162346;28;19968;-77
2023/05/09 02:08:41;;;;;;;;;;;;;;;13.51;100.00;101626.91;5162071;28;19928;-77
2023/05/09 02:11:12;;;;;;;;;;;;;;;13.51;100.00;101621.50;5161815;28;19918;-77
2023/05/09 02:13:43;;;;;;;;;;;;;;;13.50;100.00;101644.91;5162580;28;19914;-77
2023/05/09 02:16:26;;;;;;;;;;;;;;;13.52;100.00;101639.38;5162311;28;19914;-77
2023/05/09 02:19:06;;;;;;;;;;;;;;;13.52;100.00;101634.81;5162847;28;19960;-77
2023/05/09 02:21:37;;;;;;;;;;;;;;;13.50;100.00;101627.88;5162206;28;19933;-77
2023/05/09 02:24:08;;;;;;;;;;;;;;;13.45;100.00;101623.84;5162919;28;19968;-76
2023/05/09 02:26:39;;;;;;;;;;;;;;;13.47;100.00;101629.06;5160925;28;19914;-77
2023/05/09 02:29:10;;;;;;;;;;;;;;;13.46;100.00;101625.53;5162746;28;20402;-77
2023/05/09 02:31:41;;;;;;;;;;;;;;;13.44;100.00;101619.44;5162713;28;19921;-77
2023/05/09 02:34:12;;;;;;;;;;;;;;;13.43;100.00;101611.53;5163406;28;20009;-77
2023/05/09 02:36:43;;;;;;;;;;;;;;;13.40;100.00;101614.56;5164492;28;19910;-77
2023/05/09 02:39:13;;;;;;;;;;;;;;;13.38;100.00;101608.50;5165220;28;19959;-77
2023/05/09 02:41:48;;;;;;;;;;;;;;;13.36;100.00;101615.94;5166099;28;19963;-76
2023/05/09 02:44:18;;;;;;;;;;;;;;;13.37;100.00;101609.53;5165022;28;19906;-77
2023/05/09 02:46:49;;;;;;;;;;;;;;;13.36;100.00;101608.69;5164388;28;20107;-77
2023/05/09 02:49:19;;;;;;;;;;;;;;;13.36;100.00;101597.06;5166935;28;20355;-77
2023/05/09 02:51:49;;;;;;;;;;;;;;;13.36;100.00;101591.66;5165846;28;20398;-77
2023/05/09 02:54:20;;;;;;;;;;;;;;;13.37;100.00;101590.66;5166453;28;20294;-77
2023/05/09 02:56:51;;;;;;;;;;;;;;;13.36;100.00;101597.91;5165045;28;20193;-77
2023/05/09 02:59:21;;;;;;;;;;;;;;;13.34;100.00;101589.13;5166142;28;19972;-77
2023/05/09 03:01:52;;;;;;;;;;;;;;;13.32;100.00;101585.75;5165725;28;19945;-77
2023/05/09 03:04:24;;;;;;;;;;;;;;;13.34;100.00;101585.59;5164527;28;19913;-77
2023/05/09 03:06:55;;;;;;;;;;;;;;;13.35;100.00;101574.63;5163677;28;19918;-77
2023/05/09 03:09:25;;;;;;;;;;;;;;;13.38;100.00;101581.56;5164155;28;19914;-77
2023/05/09 03:11:55;;;;;;;;;;;;;;;13.40;100.00;101584.91;5165537;28;20237;-77
2023/05/09 03:14:26;;;;;;;;;;;;;;;13.42;100.00;101580.22;5164709;28;19917;-77
2023/05/09 03:16:56;;;;;;;;;;;;;;;13.42;100.00;101577.53;5165382;28;20279;-77
2023/05/09 03:19:27;;;;;;;;;;;;;;;13.45;100.00;101561.88;5164222;28;19914;-77
2023/05/09 03:21:57;;;;;;;;;;;;;;;13.47;100.00;101561.69;5165017;28;19914;-76
2023/05/09 03:24:27;;;;;;;;;;;;;;;13.50;100.00;101558.63;5165416;28;19921;-77
2023/05/09 03:26:58;;;;;;;;;;;;;;;13.51;100.00;101552.25;5164058;28;19920;-77
2023/05/09 03:29:28;;;;;;;;;;;;;;;13.53;100.00;101554.78;5165195;28;19913;-77
2023/05/09 03:31:58;;;;;;;;;;;;;;;13.53;100.00;101547.53;5165084;28;20364;-77
2023/05/09 03:34:29;;;;;;;;;;;;;;;13.53;100.00;101546.69;5163753;28;19921;-77
2023/05/09 03:36:59;;;;;;;;;;;;;;;13.53;100.00;101550.22;5163049;28;19968;-77
2023/05/09 03:39:29;;;;;;;;;;;;;;;13.55;100.00;101548.19;5165061;28;19917;-77
2023/05/09 03:42:00;;;;;;;;;;;;;;;13.56;100.00;101544.50;5165400;28;20804;-77
2023/05/09 03:44:30;;;;;;;;;;;;;;;13.57;100.00;101543.50;5165392;28;19941;-77
2023/05/09 03:47:00;;;;;;;;;;;;;;;13.58;100.00;101534.38;5162921;28;19918;-76
2023/05/09 03:49:31;;;;;;;;;;;;;;;13.58;100.00;101536.25;5163879;28;19957;-77
2023/05/09 03:52:02;;;;;;;;;;;;;;;13.57;100.00;101530.00;5165155;28;19921;-77
2023/05/09 03:54:32;;;;;;;;;;;;;;;13.59;100.00;101529.84;5165492;28;19914;-77
2023/05/09 03:57:03;;;;;;;;;;;;;;;13.61;100.00;101525.13;5165652;28;20402;-77
2023/05/09 03:59:33;;;;;;;;;;;;;;;13.60;100.00;101520.72;5167589;28;20250;-77
2023/05/09 04:02:03;;;;;;;;;;;;;;;13.62;100.00;101514.16;5165170;28;19913;-77
2023/05/09 04:04:34;;;;;;;;;;;;;;;13.60;100.00;101518.88;5163918;28;19914;-77
2023/05/09 04:07:04;;;;;;;;;;;;;;;13.60;100.00;101513.47;5163427;28;19914;-77
2023/05/09 04:09:34;;;;;;;;;;;;;;;13.62;100.00;101514.16;5164952;28;19968;-77
2023/05/09 04:12:05;;;;;;;;;;;;;;;13.64;100.00;101508.59;5164475;28;20008;-77
2023/05/09 04:14:36;;;;;;;;;;;;;;;13.65;100.00;101508.41;5165376;28;19957;-77
2023/05/09 04:17:06;;;;;;;;;;;;;;;13.66;100.00;101504.72;5164496;28;19918;-77
2023/05/09 04:19:36;;;;;;;;;;;;;;;13.71;100.00;101512.31;5163123;28;20272;-77
2023/05/09 04:22:07;;;;;;;;;;;;;;;13.73;100.00;101500.34;5164724;28;19913;-77
2023/05/09 04:24:37;;;;;;;;;;;;;;;13.79;100.00;101496.09;5162917;28;20287;-77
2023/05/09 04:27:08;;;;;;;;;;;;;;;13.83;100.00;101494.75;5164269;28;19956;-77
2023/05/09 04:29:38;;;;;;;;;;;;;;;13.88;100.00;101495.06;5163326;28;19952;-76
2023/05/09 04:32:08;;;;;;;;;;;;;;;13.91;100.00;101493.91;5164281;28;19918;-77
2023/05/09 04:34:39;;;;;;;;;;;;;;;13.92;100.00;101487.50;5163988;28;20354;-77
2023/05/09 04:37:09;;;;;;;;;;;;;;;13.97;100.00;101485.97;5150190;28;19924;-77
2023/05/09 04:39:40;;;;;;;;;;;;;;;14.02;100.00;101485.44;5162822;28;19917;-77
2023/05/09 04:42:10;;;;;;;;;;;;;;;13.99;100.00;101478.53;5162738;28;19918;-75
2023/05/09 04:44:41;;;;;;;;;;;;;;;14.04;100.00;101490.66;5164370;28;19914;-76
2023/05/09 04:47:11;;;;;;;;;;;;;;;14.06;100.00;101480.56;5163280;28;19913;-77
2023/05/09 04:49:41;;;;;;;;;;;;;;;14.06;100.00;101488.66;5162443;28;19960;-77
2023/05/09 04:52:12;;;;;;;;;;;;;;;14.04;100.00;101479.88;5163851;28;19914;-76
2023/05/09 04:54:42;;;;;;;;;;;;;;;14.02;100.00;101474.66;5162725;28;19914;-77
2023/05/09 04:57:12;;;;;;;;;;;;;;;14.04;100.00;101471.78;5162247;28;19918;-76
2023/05/09 04:59:43;;;;;;;;;;;;;;;14.04;100.00;101472.59;5162098;28;19918;-77
2023/05/09 05:02:13;;;;;;;;;;;;;;;14.01;100.00;101459.47;5164117;28;19950;-77
2023/05/09 05:04:44;;;;;;;;;;;;;;;14.04;100.00;101466.38;5161870;28;19913;-76
2023/05/09 05:07:14;;;;;;;;;;;;;;;14.04;100.00;101453.72;5163145;28;20400;-76
2023/05/09 05:09:44;;;;;;;;;;;;;;;14.03;100.00;101452.03;5163474;28;19937;-76
2023/05/09 05:12:15;;;;;;;;;;;;;;;14.07;100.00;101449.84;5163063;28;20375;-76
2023/05/09 05:14:45;;;;;;;;;;;;;;;14.04;100.00;101444.78;5163262;28;20004;-76
2023/05/09 05:17:17;;;;;;;;;;;;;;;14.07;100.00;101447.16;5161526;28;20444;-75
2023/05/09 05:19:47;;;;;;;;;;;;;;;14.06;100.00;101451.72;5161908;28;20268;-77
2023/05/09 05:22:17;;;;;;;;;;;;;;;14.09;100.00;101443.25;5163665;28;19913;-76
2023/05/09 05:24:48;;;;;;;;;;;;;;;14.07;100.00;101447.16;5163132;28;19913;-75
2023/05/09 05:27:18;;;;;;;;;;;;;;;14.06;100.00;101446.31;5162993;28;19914;-77
2023/05/09 05:29:48;;;;;;;;;;;;;;;14.03;100.00;101443.94;5162034;28;19945;-77
2023/05/09 05:32:19;;;;;;;;;;;;;;;14.01;100.00;101443.31;5162219;28;19917;-77
2023/05/09 05:34:49;;;;;;;;;;;;;;;14.03;100.00;101441.25;5163006;28;19953;-77
2023/05/09 05:37:19;;;;;;;;;;;;;;;14.01;100.00;101448.69;5160893;28;19920;-76
2023/05/09 05:39:50;;;;;;;;;;;;;;;14.05;100.00;101433.81;5162484;28;19940;-76
2023/05/09 05:42:20;;;;;;;;;;;;;;;14.02;100.00;101446.84;5161232;28;19914;-76
2023/05/09 05:44:51;;;;;;;;;;;;;;;14.04;100.00;101450.19;5160027;28;20319;-76
2023/05/09 05:47:21;;;;;;;;;;;;;;;14.01;100.00;101440.59;5156630;28;19929;-75
2023/05/09 05:49:52;;;;;;;;;;;;;;;13.98;100.00;101447.16;5154553;28;19941;-76
2023/05/09 05:52:23;;;;;;;;;;;;;;;13.99;100.00;101442.63;5175372;28;19918;-76
2023/05/09 05:54:53;;;;;;;;;;;;;;;14.04;100.00;101442.09;5159864;28;20286;-76
2023/05/09 05:57:24;;;;;;;;;;;;;;;14.07;100.00;101439.91;5158709;28;19957;-76
2023/05/09 05:59:54;;;;;;;;;;;;;;;14.05;100.00;101441.91;5158666;28;19941;-76
2023/05/09 06:02:25;;;;;;;;;;;;;;;14.07;100.00;101445.28;5158217;28;19963;-76
2023/05/09 06:04:55;;;;;;;;;;;;;;;14.11;100.00;101443.09;5157438;28;19920;-77
2023/05/09 06:07:26;;;;;;;;;;;;;;;14.08;100.00;101438.88;5158133;28;19914;-77
2023/05/09 06:09:56;;;;;;;;;;;;;;;14.09;100.00;101437.84;5157145;28;19960;-76
2023/05/09 06:12:26;;;;;;;;;;;;;;;14.09;100.00;101435.16;5157681;28;20288;-76
2023/05/09 06:14:57;;;;;;;;;;;;;;;14.08;100.00;101432.63;5157118;28;19964;-75
2023/05/09 06:17:27;;;;;;;;;;;;;;;14.06;100.00;101435.53;5156602;28;19933;-77
2023/05/09 06:19:58;;;;;;;;;;;;;;;14.12;100.00;101433.97;5156609;28;20364;-76
2023/05/09 06:22:29;;;;;;;;;;;;;;;14.08;100.00;101433.47;5156618;28;19920;-77
2023/05/09 06:24:59;;;;;;;;;;;;;;;14.06;100.00;101435.53;5158343;28;20004;-77
2023/05/09 06:27:30;;;;;;;;;;;;;;;14.08;100.00;101428.09;5157280;28;20010;-77
2023/05/09 06:30:00;;;;;;;;;;;;;;;14.11;100.00;101425.03;5157686;28;19926;-77
2023/05/09 06:32:30;;;;;;;;;;;;;;;14.10;100.00;101415.25;5156955;28;20012;-77
2023/05/09 06:35:01;;;;;;;;;;;;;;;14.12;100.00;101415.09;5159651;28;19913;-75
2023/05/09 06:37:32;;;;;;;;;;;;;;;14.03;100.00;101408.88;5141338;28;19914;-77
2023/05/09 06:40:03;;;;;;;;;;;;;;;14.07;100.00;101401.28;5158574;28;19953;-78
2023/05/09 06:42:33;;;;;;;;;;;;;;;14.14;100.00;101405.78;5159896;28;19968;-77
2023/05/09 06:45:04;;;;;;;;;;;;;;;14.13;100.00;101400.56;5160802;28;19971;-76
2023/05/09 06:47:34;;;;;;;;;;;;;;;14.23;100.00;101402.03;5161064;28;19959;-77
2023/05/09 06:50:05;;;;;;;;;;;;;;;14.24;100.00;101397.47;5158454;28;19945;-77
2023/05/09 06:52:35;;;;;;;;;;;;;;;14.29;100.00;101391.56;5159968;28;19958;-76
2023/05/09 06:55:06;;;;;;;;;;;;;;;14.36;100.00;101398.78;5160447;28;19968;-78
2023/05/09 06:57:37;;;;;;;;;;;;;;;14.43;100.00;101393.50;5159114;28;19998;-77
2023/05/09 07:00:08;;;;;;;;;;;;;;;14.45;100.00;101381.50;5159081;28;20012;-78
2023/05/09 07:02:40;;;;;;;;;;;;;;;14.53;100.00;101383.34;5157218;28;20474;-77
2023/05/09 07:05:11;;;;;;;;;;;;;;;14.53;100.00;101385.22;5157363;28;19922;-77
2023/05/09 07:07:41;;;;;;;;;;;;;;;14.61;100.00;101377.91;5157099;28;19922;-77
2023/05/09 07:10:12;;;;;;;;;;;;;;;14.68;100.00;101380.72;5157398;28;19984;-77
2023/05/09 07:12:42;;;;;;;;;;;;;;;14.73;100.00;101373.75;5157155;28;19918;-77
2023/05/09 07:15:12;;;;;;;;;;;;;;;14.85;100.00;101367.91;5158436;28;19918;-77
2023/05/09 07:17:43;;;;;;;;;;;;;;;14.87;100.00;101368.56;5157609;28;19918;-77
2023/05/09 07:20:13;;;;;;;;;;;;;;;14.75;100.00;101360.88;5158138;28;19980;-77
2023/05/09 07:22:44;;;;;;;;;;;;;;;14.77;100.00;101364.25;5162021;28;19924;-77
2023/05/09 07:25:14;;;;;;;;;;;;;;;14.73;100.00;101357.53;5162528;28;19918;-78
2023/05/09 07:27:44;;;;;;;;;;;;;;;14.77;100.00;101349.91;5160946;28;19921;-77
2023/05/09 07:30:15;;;;;;;;;;;;;;;14.88;100.00;101356.75;5160549;28;19930;-76
2023/05/09 07:32:45;;;;;;;;;;;;;;;14.74;100.00;101350.28;5161120;28;19956;-77
2023/05/09 07:35:16;;;;;;;;;;;;;;;14.68;100.00;101345.59;5163286;28;19922;-79
2023/05/09 07:37:46;;;;;;;;;;;;;;;14.73;100.00;101351.28;5163184;28;19914;-77
2023/05/09 07:40:17;;;;;;;;;;;;;;;14.81;100.00;101335.03;5158660;28;19968;-77
2023/05/09 07:42:48;;;;;;;;;;;;;;;14.83;100.00;101340.25;5158845;28;19924;-76
2023/05/09 07:45:19;;;;;;;;;;;;;;;14.90;100.00;101335.78;5158282;28;19948;-77
2023/05/09 07:47:49;;;;;;;;;;;;;;;15.03;100.00;101325.19;5158346;28;20039;-77
2023/05/09 07:50:19;;;;;;;;;;;;;;;15.04;100.00;101324.16;5159650;28;19926;-77
2023/05/09 07:52:51;;;;;;;;;;;;;;;15.01;100.00;101320.00;5158812;28;19956;-77
2023/05/09 07:55:21;;;;;;;;;;;;;;;15.00;100.00;101317.44;5159607;28;20252;-78
2023/05/09 07:57:52;;;;;;;;;;;;;;;15.00;100.00;101320.16;5158404;28;19924;-77
2023/05/09 08:00:22;;;;;;;;;;;;;;;15.08;100.00;101321.94;5159117;28;19918;-77
2023/05/09 08:02:53;;;;;;;;;;;;;;;15.06;100.00;101319.44;5157104;28;19972;-77
2023/05/09 08:05:24;;;;;;;;;;;;;;;15.00;100.00;101312.03;5159381;28;20020;-77
2023/05/09 08:07:54;;;;;;;;;;;;;;;14.94;100.00;101312.78;5156246;28;20400;-78
2023/05/09 08:10:27;;;;;;;;;;;;;;;14.92;100.00;101309.44;5156020;28;19936;-78
2023/05/09 08:12:58;;;;;;;;;;;;;;;14.79;100.00;101307.34;5159971;28;19925;-77
2023/05/09 08:15:28;;;;;;;;;;;;;;;14.87;100.00;101293.78;5157944;28;19918;-77
2023/05/09 08:17:58;;;;;;;;;;;;;;;14.85;100.00;101284.16;5155132;28;19922;-77
2023/05/09 08:20:30;;;;;;;;;;;;;;;14.73;100.00;101287.31;5154843;28;19926;-78
2023/05/09 08:23:00;;;;;;;;;;;;;;;14.73;100.00;101290.03;5155056;28;20006;-77
2023/05/09 08:25:31;;;;;;;;;;;;;;;14.74;100.00;101282.75;5156573;28;20421;-77
2023/05/09 08:28:02;;;;;;;;;;;;;;;14.69;100.00;101286.00;5159558;28;19949;-77
2023/05/09 08:30:32;;;;;;;;;;;;;;;14.68;100.00;101283.50;5159734;28;19926;-77
2023/05/09 08:33:02;;;;;;;;;;;;;;;14.62;100.00;101279.66;5156797;28;19921;-78
2023/05/09 08:35:33;;;;;;;;;;;;;;;14.66;100.00;101278.28;5162360;28;20376;-78
2023/05/09 08:38:03;;;;;;;;;;;;;;;14.66;100.00;101272.88;5160240;28;19921;-78
2023/05/09 08:40:34;;;;;;;;;;;;;;;14.72;100.00;101266.75;5157649;28;19925;-78
2023/05/09 08:43:05;;;;;;;;;;;;;;;14.62;100.00;101279.66;5158845;28;19924;-78
2023/05/09 08:45:41;;;;;;;;;;;;;;;14.59;100.00;101268.38;5160017;28;19913;-78
2023/05/09 08:48:14;;;;;;;;;;;;;;;14.49;100.00;101266.75;5158796;28;19953;-77
2023/05/09 08:50:44;;;;;;;;;;;;;;;14.67;100.00;101258.34;5159334;28;20004;-78
2023/05/09 08:53:15;;;;;;;;;;;;;;;14.66;100.00;101261.22;5158668;28;20463;-78
2023/05/09 08:55:45;;;;;;;;;;;;;;;14.60;100.00;101261.94;5161770;28;19921;-77
2023/05/09 08:58:18;;;;;;;;;;;;;;;14.61;100.00;101264.50;5160871;28;20265;-78
2023/05/09 09:00:50;;;;;;;;;;;;;;;14.71;100.00;101259.66;5160295;28;20000;-78
2023/05/09 09:03:20;;;;;;;;;;;;;;;14.77;100.00;101256.22;5158916;28;19914;-78
2023/05/09 09:05:53;;;;;;;;;;;;;;;14.60;100.00;101251.97;5157596;28;21264;-77
2023/05/09 09:08:25;;;;;;;;;;;;;;;14.56;100.00;101252.53;5157732;28;19925;-77
2023/05/09 09:10:55;;;;;;;;;;;;;;;14.57;100.00;101254.22;5157652;28;19929;-77
2023/05/09 09:13:26;;;;;;;;;;;;;;;14.51;100.00;101245.00;5159129;28;20240;-78
2023/05/09 09:15:57;;;;;;;;;;;;;;;14.55;100.00;101245.47;5156800;28;19965;-77
2023/05/09 09:18:28;;;;;;;;;;;;;;;14.58;100.00;101240.53;5156858;28;20405;-76
2023/05/09 09:21:03;;;;;;;;;;;;;;;14.60;100.00;101245.75;5158151;28;19913;-77
2023/05/09 09:23:36;;;;;;;;;;;;;;;14.74;100.00;101242.25;5158801;28;20303;-77
2023/05/09 09:26:06;;;;;;;;;;;;;;;14.41;100.00;101239.00;5159977;28;19918;-77
2023/05/09 09:28:36;;;;;;;;;;;;;;;14.46;100.00;101232.03;5158563;28;19917;-78
2023/05/09 09:31:18;;;;;;;;;;;;;;;14.51;100.00;101236.91;5158206;28;19918;-78
2023/05/09 09:33:48;;;;;;;;;;;;;;;14.52;100.00;101230.47;5158074;28;20013;-76
2023/05/09 09:36:38;;;;;;;;;;;;;;;14.41;100.00;101228.19;5158447;28;20031;-77
2023/05/09 09:39:08;;;;;;;;;;;;;;;14.46;100.00;101231.19;5158607;28;19918;-77
2023/05/09 09:41:39;;;;;;;;;;;;;;;14.46;100.00;101232.03;5159661;28;20355;-77
2023/05/09 09:44:10;;;;;;;;;;;;;;;14.46;100.00;101226.63;5159215;28;19921;-78
2023/05/09 09:46:59;;;;;;;;;;;;;;;14.56;100.00;101234.50;5158973;28;19921;-78
2023/05/09 09:49:30;;;;;;;;;;;;;;;14.48;100.00;101224.59;5156818;28;19920;-78
2023/05/09 09:52:00;;;;;;;;;;;;;;;14.36;100.00;101222.50;5160587;28;19918;-77
2023/05/09 09:54:31;;;;;;;;;;;;;;;14.46;100.00;101236.59;5160372;28;20043;-77
2023/05/09 09:57:02;;;;;;;;;;;;;;;14.35;100.00;101226.19;5157726;28;19968;-77
2023/05/09 09:59:32;;;;;;;;;;;;;;;14.35;100.00;101224.34;5157088;28;19953;-77
2023/05/09 10:02:04;;;;;;;;;;;;;;;14.48;100.00;101221.91;5159316;28;19918;-78
2023/05/09 10:04:35;;;;;;;;;;;;;;;14.56;100.00;101215.59;5162849;28;20013;-77
2023/05/09 10:07:09;;;;;;;;;;;;;;;14.52;100.00;101216.16;5160194;28;19918;-77
2023/05/09 10:09:39;;;;;;;;;;;;;;;14.54;100.00;101214.94;5157798;28;19953;-77
2023/05/09 10:12:10;;;;;;;;;;;;;;;14.53;100.00;101210.56;5160181;28;20552;-77
2023/05/09 10:14:42;;;;;;;;;;;;;;;14.48;100.00;101208.41;5160024;28;20371;-77
2023/05/09 10:17:13;;;;;;;;;;;;;;;14.32;100.00;101205.81;5157416;28;19914;-78
2023/05/09 10:19:45;;;;;;;;;;;;;;;14.27;100.00;101205.53;5158084;28;19917;-76
2023/05/09 10:22:16;;;;;;;;;;;;;;;14.16;100.00;101198.72;5160280;28;19913;-78
2023/05/09 10:24:50;;;;;;;;;;;;;;;14.17;100.00;101199.53;5158938;28;20516;-77
2023/05/09 10:27:21;;;;;;;;;;;;;;;14.14;100.00;101210.69;5154911;28;19918;-77
2023/05/09 10:30:11;;;;;;;;;;;;;;;14.23;100.00;101199.66;5152392;28;19961;-76
2023/05/09 10:32:45;;;;;;;;;;;;;;;14.14;100.00;101198.03;5156346;28;20339;-76
2023/05/09 10:35:16;;;;;;;;;;;;;;;13.94;100.00;101196.84;5157845;28;19914;-78
2023/05/09 10:37:47;;;;;;;;;;;;;;;13.92;100.00;101190.81;5155766;28;19918;-77
2023/05/09 10:40:18;;;;;;;;;;;;;;;13.96;100.00;101187.56;5151020;28;20088;-79
2023/05/09 10:42:49;;;;;;;;;;;;;;;13.99;100.00;101187.19;5153866;28;20029;-76
2023/05/09 10:45:20;;;;;;;;;;;;;;;14.04;100.00;101180.41;5155446;28;20001;-77
2023/05/09 10:47:52;;;;;;;;;;;;;;;14.05;100.00;101174.00;5154451;28;19928;-76
2023/05/09 10:50:23;;;;;;;;;;;;;;;14.08;100.00;101173.66;5152997;28;20250;-77
2023/05/09 10:53:03;;;;;;;;;;;;;;;14.12;100.00;101165.00;5154968;28;19957;-77
2023/05/09 10:55:36;;;;;;;;;;;;;;;14.32;100.00;101165.34;5155820;28;19921;-76
2023/05/09 10:58:34;;;;;;;;;;;;;;;14.36;100.00;101163.97;5152145;28;19921;-76
2023/05/09 11:01:05;;;;;;;;;;;;;;;14.37;100.00;101165.63;5156004;28;19976;-77
2023/05/09 11:03:54;;;;;;;;;;;;;;;14.42;100.00;101159.69;5158917;28;19917;-76
2023/05/09 11:06:44;;;;;;;;;;;;;;;14.43;100.00;101161.34;5158979;28;19955;-76
2023/05/09 11:09:34;;;;;;;;;;;;;;;14.30;100.00;101159.28;5159234;28;19914;-77
2023/05/09 11:12:04;;;;;;;;;;;;;;;14.29;100.00;101149.50;5157023;28;20414;-77
2023/05/09 11:14:35;;;;;;;;;;;;;;;14.34;100.00;101151.66;5157469;28;20017;-76
2023/05/09 11:17:06;;;;;;;;;;;;;;;14.19;100.00;101144.38;5157116;28;19921;-76
2023/05/09 11:19:57;;;;;;;;;;;;;;;14.30;100.00;101148.47;5158944;28;19940;-78
2023/05/09 11:22:31;;;;;;;;;;;;;;;14.31;100.00;101139.38;5157852;28;19917;-78
2023/05/09 11:25:03;;;;;;;;;;;;;;;14.31;100.00;101141.22;5159328;28;19918;-77
2023/05/09 11:27:44;;;;;;;;;;;;;;;14.33;100.00;101140.03;5158248;28;19973;-77
2023/05/09 11:30:15;;;;;;;;;;;;;;;14.49;100.00;101136.34;5157085;28;19921;-77
2023/05/09 11:32:49;;;;;;;;;;;;;;;14.53;100.00;101142.22;5155222;28;19921;-76
2023/05/09 11:35:21;;;;;;;;;;;;;;;14.52;100.00;101132.47;5156622;28;19917;-76
2023/05/09 11:37:58;;;;;;;;;;;;;;;14.57;100.00;101136.28;5158280;28;19980;-79
2023/05/09 11:40:29;;;;;;;;;;;;;;;14.61;100.00;101126.78;5156825;28;19972;-76
2023/05/09 11:43:00;;;;;;;;;;;;;;;14.69;100.00;101128.53;5155353;28;19964;-77
2023/05/09 11:45:31;;;;;;;;;;;;;;;14.76;100.00;101124.09;5159415;28;19964;-77
2023/05/09 11:48:07;;;;;;;;;;;;;;;14.75;100.00;101117.81;5160734;28;19917;-77
2023/05/09 11:50:37;;;;;;;;;;;;;;;14.54;100.00;101114.19;5159571;28;20448;-77
2023/05/09 11:53:09;;;;;;;;;;;;;;;14.38;100.00;101121.41;5155248;28;19993;-77
2023/05/09 11:55:40;;;;;;;;;;;;;;;14.53;100.00;101109.84;5157889;28;19918;-78
2023/05/09 11:58:10;;;;;;;;;;;;;;;14.66;100.00;101115.41;5149849;28;19933;-77
2023/05/09 12:00:43;;;;;;;;;;;;;;;14.54;100.00;101106.94;5153354;28;19921;-77
2023/05/09 12:03:14;;;;;;;;;;;;;;;14.50;100.00;101105.63;5152595;28;20391;-77
2023/05/09 12:05:46;;;;;;;;;;;;;;;14.65;100.00;101103.75;5155692;28;19913;-77
2023/05/09 12:08:17;;;;;;;;;;;;;;;14.57;100.00;101103.88;5153667;28;19914;-76
2023/05/09 12:10:47;;;;;;;;;;;;;;;14.53;100.00;101099.88;5156804;28;19917;-76
2023/05/09 12:13:18;;;;;;;;;;;;;;;14.40;100.00;101086.97;5137941;28;19918;-77
2023/05/09 12:15:49;;;;;;;;;;;;;;;14.47;100.00;101092.47;5155922;28;19917;-77
2023/05/09 12:18:20;;;;;;;;;;;;;;;14.33;100.00;101093.31;5156423;28;20764;-77
2023/05/09 12:20:50;;;;;;;;;;;;;;;14.42;100.00;101087.66;5159735;28;19968;-76
2023/05/09 12:23:22;;;;;;;;;;;;;;;14.49;100.00;101085.91;5156008;28;20343;-77
2023/05/09 12:25:53;;;;;;;;;;;;;;;14.41;100.00;101083.28;5153228;28;19925;-77
2023/05/09 12:28:24;;;;;;;;;;;;;;;14.51;100.00;101083.03;5155097;28;19936;-77
2023/05/09 12:30:55;;;;;;;;;;;;;;;14.54;100.00;101082.63;5156047;28;19918;-77
2023/05/09 12:33:25;;;;;;;;;;;;;;;14.59;100.00;101080.22;5155565;28;19922;-77
2023/05/09 12:36:14;;;;;;;;;;;;;;;14.50;100.00;101076.75;5154474;28;20384;-76
2023/05/09 12:39:02;;;;;;;;;;;;;;;14.53;100.00;101075.56;5152507;28;19941;-76
2023/05/09 12:41:32;;;;;;;;;;;;;;;14.70;100.00;101071.63;5154128;28;20386;-77
2023/05/09 12:44:03;;;;;;;;;;;;;;;14.73;100.00;101070.44;5154402;28;19918;-77
2023/05/09 12:46:33;;;;;;;;;;;;;;;14.65;100.00;101067.81;5153256;28;19979;-77
2023/05/09 12:49:04;;;;;;;;;;;;;;;14.54;100.00;101068.31;5156042;28;20044;-76
2023/05/09 12:51:34;;;;;;;;;;;;;;;14.47;100.00;101065.50;5155067;28;19918;-76